Time;durP1;ratioP1;P1;durP2;ratioP2;P2;SDS_P1;SDS_P2;PMS_P1;PMS_P2;Temp;Humidity;BMP_temperature;BMP_pressure;BME280_temperature;BME280_humidity;BME280_pressure;Samples;Min_cycle;Max_cycle;Signal;HPM_P1;HPM_P2
2023/10/06 00:01:21;;;;;;;;;;;13.60;82.30;;;;;;5067320;28;19991;-79
2023/10/06 00:03:48;;;;;;;;;;;13.60;82.40;;;;;;5072435;28;19909;-79
2023/10/06 00:06:22;;;;;;;;;;;13.60;82.40;;;;;;5070610;28;20007;-79
2023/10/06 00:08:51;;;;;;;;;;;13.60;82.60;;;;;;5072106;28;20377;-78
2023/10/06 00:11:31;;;;;;;;;;;13.60;82.40;;;;;;5065416;28;19923;-80
2023/10/06 00:14:07;;;;;;;;;;;13.60;82.30;;;;;;5072098;28;19924;-79
2023/10/06 00:16:39;;;;;;;;;;;13.60;82.50;;;;;;5070516;28;19983;-79
2023/10/06 00:19:25;;;;;;;;;;;13.50;82.70;;;;;;5071608;28;19942;-79
2023/10/06 00:22:02;;;;;;;;;;;13.50;82.90;;;;;;5070849;28;19913;-79
2023/10/06 00:24:28;;;;;;;;;;;13.50;82.90;;;;;;5077612;28;19924;-79
2023/10/06 00:26:55;;;;;;;;;;;13.50;82.90;;;;;;5072126;28;19913;-78
2023/10/06 00:29:23;;;;;;;;;;;13.60;82.80;;;;;;5073138;28;19920;-79
2023/10/06 00:31:48;;;;;;;;;;;13.60;83.00;;;;;;5078267;28;19952;-79
2023/10/06 00:34:20;;;;;;;;;;;13.50;83.20;;;;;;5090957;28;20273;-79
2023/10/06 00:36:56;;;;;;;;;;;13.50;83.20;;;;;;5077665;28;19959;-80
2023/10/06 00:39:25;;;;;;;;;;;13.50;83.20;;;;;;5076109;28;20262;-81
2023/10/06 00:42:03;;;;;;;;;;;13.60;83.20;;;;;;5075152;28;19962;-81
2023/10/06 00:44:30;;;;;;;;;;;13.50;83.20;;;;;;5075748;28;20007;-81
2023/10/06 00:46:59;;;;;;;;;;;13.50;83.00;;;;;;5077670;28;19912;-80
2023/10/06 00:49:28;;;;;;;;;;;13.50;83.30;;;;;;5079286;28;19919;-81
2023/10/06 00:51:54;;;;;;;;;;;13.50;83.50;;;;;;5078778;28;19966;-80
2023/10/06 00:54:20;;;;;;;;;;;13.50;83.30;;;;;;5076937;28;20007;-79
2023/10/06 00:56:46;;;;;;;;;;;13.40;83.20;;;;;;5076839;28;19919;-77
2023/10/06 00:59:12;;;;;;;;;;;13.40;83.40;;;;;;5076851;28;19921;-80
2023/10/06 01:01:42;;;;;;;;;;;13.50;83.40;;;;;;5076208;28;19942;-80
2023/10/06 01:06:33;;;;;;;;;;;13.30;83.10;;;;;;5078142;28;20002;-80
2023/10/06 01:09:30;;;;;;;;;;;13.30;83.60;;;;;;5077355;28;20007;-79
2023/10/06 01:11:46;;;;;;;;;;;13.30;83.80;;;;;;5078876;28;19915;-80
2023/10/06 01:14:14;;;;;;;;;;;13.20;84.00;;;;;;5069456;28;20003;-80
2023/10/06 01:16:42;;;;;;;;;;;13.20;83.80;;;;;;5073592;28;20373;-81
2023/10/06 01:19:14;;;;;;;;;;;13.20;84.00;;;;;;5075941;28;19954;-80
2023/10/06 01:21:42;;;;;;;;;;;13.30;84.10;;;;;;5078246;28;20400;-81
2023/10/06 01:24:12;;;;;;;;;;;13.20;84.00;;;;;;5075482;28;19995;-78
2023/10/06 01:26:41;;;;;;;;;;;13.20;84.20;;;;;;5074013;28;19916;-80
2023/10/06 01:29:10;;;;;;;;;;;13.20;84.20;;;;;;5078540;28;20073;-79
2023/10/06 01:31:39;;;;;;;;;;;13.20;84.10;;;;;;5075907;28;19981;-79
2023/10/06 01:34:07;;;;;;;;;;;13.20;84.20;;;;;;5076529;28;19928;-80
2023/10/06 01:36:42;;;;;;;;;;;13.10;84.00;;;;;;5073310;28;20008;-80
2023/10/06 01:39:16;;;;;;;;;;;13.10;84.50;;;;;;5078477;28;19919;-80
2023/10/06 01:41:45;;;;;;;;;;;13.10;84.30;;;;;;5075411;28;19944;-80
2023/10/06 01:44:12;;;;;;;;;;;13.20;84.30;;;;;;5076267;28;19944;-80
2023/10/06 01:46:38;;;;;;;;;;;13.10;84.40;;;;;;5075678;28;19908;-80
2023/10/06 01:49:04;;;;;;;;;;;13.10;84.30;;;;;;5075645;28;19913;-80
2023/10/06 01:51:35;;;;;;;;;;;13.10;84.60;;;;;;5075255;28;19915;-81
2023/10/06 01:54:02;;;;;;;;;;;13.20;84.40;;;;;;5072958;28;20003;-81
2023/10/06 01:56:30;;;;;;;;;;;13.20;84.00;;;;;;5073097;28;20531;-80
2023/10/06 01:58:57;;;;;;;;;;;13.30;83.90;;;;;;5070570;28;19912;-80
2023/10/06 02:01:23;;;;;;;;;;;13.20;84.10;;;;;;5073416;28;19913;-80
2023/10/06 02:03:48;;;;;;;;;;;13.30;84.00;;;;;;5073591;28;19986;-79
2023/10/06 02:06:15;;;;;;;;;;;13.20;84.30;;;;;;5075088;28;19915;-80
2023/10/06 02:08:43;;;;;;;;;;;13.20;84.00;;;;;;5072898;28;20288;-80
2023/10/06 02:11:09;;;;;;;;;;;13.20;83.90;;;;;;5078157;28;19927;-80
2023/10/06 02:13:36;;;;;;;;;;;13.10;84.50;;;;;;5075942;28;20020;-80
2023/10/06 02:16:03;;;;;;;;;;;13.10;84.40;;;;;;5076046;28;19912;-79
2023/10/06 02:18:36;;;;;;;;;;;13.10;84.60;;;;;;5077790;28;19908;-80
2023/10/06 02:21:07;;;;;;;;;;;13.10;84.40;;;;;;5074783;28;19920;-81
2023/10/06 02:23:37;;;;;;;;;;;13.10;84.20;;;;;;5076272;28;19909;-81
2023/10/06 02:26:06;;;;;;;;;;;13.10;84.50;;;;;;5074693;28;20349;-79
2023/10/06 02:28:32;;;;;;;;;;;13.10;84.20;;;;;;5075881;28;19916;-80
2023/10/06 02:31:03;;;;;;;;;;;13.10;84.60;;;;;;5076310;28;19943;-81
2023/10/06 02:33:29;;;;;;;;;;;13.10;84.60;;;;;;5074245;28;19999;-80
2023/10/06 02:35:55;;;;;;;;;;;13.10;84.50;;;;;;5073423;28;19912;-80
2023/10/06 02:38:20;;;;;;;;;;;13.10;84.60;;;;;;5073161;28;19919;-79
2023/10/06 02:40:47;;;;;;;;;;;13.10;84.50;;;;;;5073461;28;19979;-80
2023/10/06 02:43:22;;;;;;;;;;;13.20;84.20;;;;;;5076626;28;19951;-80
2023/10/06 02:45:48;;;;;;;;;;;13.10;84.20;;;;;;5075446;28;19951;-80
2023/10/06 02:48:22;;;;;;;;;;;13.10;84.50;;;;;;5074703;28;19920;-80
2023/10/06 02:50:49;;;;;;;;;;;13.10;84.10;;;;;;5075247;28;19920;-80
2023/10/06 02:53:19;;;;;;;;;;;13.10;84.20;;;;;;5076475;28;19912;-81
2023/10/06 02:55:46;;;;;;;;;;;13.10;84.10;;;;;;5074829;28;19935;-80
2023/10/06 03:01:11;;;;;;;;;;;13.10;84.00;;;;;;5060540;28;20404;-80
2023/10/06 03:03:36;;;;;;;;;;;13.10;84.10;;;;;;5073452;28;19920;-80
2023/10/06 03:06:07;;;;;;;;;;;13.10;84.00;;;;;;5076620;28;19912;-80
2023/10/06 03:08:32;;;;;;;;;;;13.00;84.40;;;;;;5071849;28;19955;-81
2023/10/06 03:10:59;;;;;;;;;;;13.00;84.60;;;;;;5075963;28;19917;-80
2023/10/06 03:13:42;;;;;;;;;;;13.00;84.50;;;;;;5074646;28;20015;-80
2023/10/06 03:16:10;;;;;;;;;;;13.00;84.10;;;;;;5074714;28;19913;-78
2023/10/06 03:18:36;;;;;;;;;;;13.00;84.20;;;;;;5073679;28;19912;-79
2023/10/06 03:23:32;;;;;;;;;;;13.00;84.50;;;;;;5070437;28;19919;-80
2023/10/06 03:25:57;;;;;;;;;;;13.00;84.10;;;;;;5075233;28;19909;-81
2023/10/06 03:29:11;;;;;;;;;;;12.90;84.50;;;;;;5075987;28;19995;-80
2023/10/06 03:33:44;;;;;;;;;;;12.80;84.70;;;;;;5075631;28;19990;-81
2023/10/06 03:36:11;;;;;;;;;;;12.80;84.80;;;;;;5073983;28;19916;-80
2023/10/06 03:38:37;;;;;;;;;;;12.80;84.60;;;;;;5076853;28;19909;-79
2023/10/06 03:41:24;;;;;;;;;;;12.80;84.60;;;;;;5073617;28;19965;-81
2023/10/06 03:43:55;;;;;;;;;;;12.80;84.70;;;;;;5074074;28;20393;-78
2023/10/06 03:46:24;;;;;;;;;;;12.80;84.70;;;;;;5073618;28;19920;-80
2023/10/06 03:48:51;;;;;;;;;;;12.90;84.60;;;;;;5071037;28;20390;-80
2023/10/06 03:51:18;;;;;;;;;;;12.90;84.40;;;;;;5072172;28;20358;-79
2023/10/06 03:53:45;;;;;;;;;;;12.90;84.40;;;;;;5073261;28;20290;-80
2023/10/06 03:56:13;;;;;;;;;;;12.90;84.10;;;;;;5072223;28;20361;-80
2023/10/06 03:58:38;;;;;;;;;;;12.90;83.80;;;;;;5073029;28;20195;-79
2023/10/06 04:01:11;;;;;;;;;;;12.90;84.00;;;;;;5072385;28;20032;-79
2023/10/06 04:03:38;;;;;;;;;;;12.90;83.80;;;;;;5070737;28;19912;-80
2023/10/06 04:06:04;;;;;;;;;;;13.00;83.90;;;;;;5070737;28;19912;-79
2023/10/06 04:08:29;;;;;;;;;;;12.90;83.80;;;;;;5068965;28;20358;-79
2023/10/06 04:10:58;;;;;;;;;;;13.00;83.80;;;;;;5071605;28;20300;-80
2023/10/06 04:13:23;;;;;;;;;;;13.00;83.40;;;;;;5070685;28;19924;-79
2023/10/06 04:15:49;;;;;;;;;;;13.00;83.70;;;;;;5072587;28;19916;-79
2023/10/06 04:18:17;;;;;;;;;;;13.00;83.60;;;;;;5072431;28;20289;-80
2023/10/06 04:20:43;;;;;;;;;;;12.90;83.70;;;;;;5077378;28;20330;-79
2023/10/06 04:23:11;;;;;;;;;;;12.90;83.90;;;;;;5079924;28;19940;-78
2023/10/06 04:25:40;;;;;;;;;;;12.90;83.90;;;;;;5094027;28;19917;-78
2023/10/06 04:28:09;;;;;;;;;;;13.00;83.60;;;;;;5090259;28;19974;-78
2023/10/06 04:30:35;;;;;;;;;;;13.00;83.30;;;;;;5078721;28;19917;-80
2023/10/06 04:33:03;;;;;;;;;;;13.00;83.20;;;;;;5078411;28;19912;-80
2023/10/06 04:35:32;;;;;;;;;;;12.90;83.50;;;;;;5076688;28;20378;-81
2023/10/06 04:38:01;;;;;;;;;;;12.90;83.30;;;;;;5074302;28;19919;-81
2023/10/06 04:40:27;;;;;;;;;;;12.90;83.70;;;;;;5078588;28;19920;-80
2023/10/06 04:42:53;;;;;;;;;;;12.90;83.80;;;;;;5077058;28;19908;-80
2023/10/06 04:45:19;;;;;;;;;;;12.80;83.40;;;;;;5074485;28;19917;-80
2023/10/06 04:47:45;;;;;;;;;;;12.80;83.20;;;;;;5076343;28;20046;-80
2023/10/06 04:50:15;;;;;;;;;;;12.80;83.50;;;;;;5073052;28;20002;-79
2023/10/06 04:52:46;;;;;;;;;;;12.80;83.80;;;;;;5073470;28;19916;-79
2023/10/06 04:55:13;;;;;;;;;;;12.90;83.20;;;;;;5073286;28;19912;-79
2023/10/06 04:57:42;;;;;;;;;;;12.90;83.10;;;;;;5075286;28;19974;-80
2023/10/06 05:00:15;;;;;;;;;;;12.90;82.80;;;;;;5074901;28;19912;-79
2023/10/06 05:02:43;;;;;;;;;;;12.90;82.80;;;;;;5076677;28;19908;-80
2023/10/06 05:05:13;;;;;;;;;;;12.80;83.20;;;;;;5074827;28;19920;-79
2023/10/06 05:07:38;;;;;;;;;;;12.80;83.80;;;;;;5073390;28;19913;-80
2023/10/06 05:10:08;;;;;;;;;;;12.80;83.50;;;;;;5075503;28;19986;-79
2023/10/06 05:12:37;;;;;;;;;;;12.80;83.50;;;;;;5076868;28;19959;-80
2023/10/06 05:15:04;;;;;;;;;;;12.90;83.30;;;;;;5075398;28;20019;-79
2023/10/06 05:17:30;;;;;;;;;;;12.80;83.20;;;;;;5075517;28;19920;-80
2023/10/06 05:19:58;;;;;;;;;;;12.90;83.00;;;;;;5074388;28;19912;-80
2023/10/06 05:22:24;;;;;;;;;;;12.80;82.90;;;;;;5075048;28;20444;-81
2023/10/06 05:24:49;;;;;;;;;;;12.90;82.80;;;;;;5074795;28;20053;-82
2023/10/06 05:27:16;;;;;;;;;;;12.90;82.50;;;;;;5076822;28;19948;-82
2023/10/06 05:29:41;;;;;;;;;;;12.90;82.70;;;;;;5074808;28;19942;-79
2023/10/06 05:32:06;;;;;;;;;;;12.90;82.80;;;;;;5074337;28;20392;-82
2023/10/06 05:34:32;;;;;;;;;;;12.90;82.90;;;;;;5075094;28;19922;-81
2023/10/06 05:37:00;;;;;;;;;;;12.90;82.90;;;;;;5072226;28;19919;-81
2023/10/06 05:39:28;;;;;;;;;;;12.90;82.70;;;;;;5075244;28;19913;-82
2023/10/06 05:41:53;;;;;;;;;;;12.90;82.70;;;;;;5087894;28;19920;-81
2023/10/06 05:44:18;;;;;;;;;;;12.80;83.00;;;;;;5062487;28;19913;-81
2023/10/06 05:46:44;;;;;;;;;;;12.90;83.30;;;;;;5075519;28;19966;-81
2023/10/06 05:49:11;;;;;;;;;;;12.90;83.00;;;;;;5074479;28;20003;-82
2023/10/06 05:51:38;;;;;;;;;;;12.90;82.90;;;;;;5073043;28;19913;-82
2023/10/06 05:54:09;;;;;;;;;;;12.90;82.80;;;;;;5074345;28;19920;-82
2023/10/06 05:56:42;;;;;;;;;;;12.80;83.00;;;;;;5069121;28;19917;-80
2023/10/06 05:59:09;;;;;;;;;;;12.80;83.00;;;;;;5067565;28;19912;-83
2023/10/06 06:01:35;;;;;;;;;;;12.80;83.10;;;;;;5063370;28;19948;-82
2023/10/06 06:04:08;;;;;;;;;;;12.90;83.00;;;;;;5065033;28;19956;-81
2023/10/06 06:06:36;;;;;;;;;;;12.80;83.10;;;;;;5070392;28;19956;-81
2023/10/06 06:09:03;;;;;;;;;;;12.90;83.00;;;;;;5070867;28;20010;-81
2023/10/06 06:11:30;;;;;;;;;;;13.00;82.60;;;;;;5070115;28;19917;-82
2023/10/06 06:13:57;;;;;;;;;;;13.00;82.40;;;;;;5072275;28;19916;-82
2023/10/06 06:16:24;;;;;;;;;;;13.00;82.50;;;;;;5069857;28;20289;-81
2023/10/06 06:18:50;;;;;;;;;;;13.00;82.60;;;;;;5072125;28;20385;-81
2023/10/06 06:21:16;;;;;;;;;;;13.00;82.50;;;;;;5087329;28;19916;-84
2023/10/06 06:23:46;;;;;;;;;;;13.00;82.40;;;;;;5072466;28;19975;-83
2023/10/06 06:26:11;;;;;;;;;;;13.10;82.20;;;;;;5074484;28;19931;-84
2023/10/06 06:28:39;;;;;;;;;;;13.20;81.80;;;;;;5075055;28;19909;-84
2023/10/06 06:31:06;;;;;;;;;;;13.20;82.10;;;;;;5068319;28;19945;-83
2023/10/06 06:33:32;;;;;;;;;;;13.20;81.80;;;;;;5074074;28;19920;-84
2023/10/06 06:35:58;;;;;;;;;;;13.30;81.70;;;;;;5071296;28;19908;-84
2023/10/06 06:38:25;;;;;;;;;;;13.30;81.80;;;;;;5071897;28;20336;-84
2023/10/06 06:40:50;;;;;;;;;;;13.50;81.40;;;;;;5076435;28;19909;-85
2023/10/06 06:43:19;;;;;;;;;;;13.50;81.20;;;;;;5072791;28;19997;-84
2023/10/06 06:45:45;;;;;;;;;;;13.50;81.30;;;;;;5075605;28;19999;-83
2023/10/06 06:48:16;;;;;;;;;;;13.50;81.20;;;;;;5079832;28;19913;-81
2023/10/06 06:50:42;;;;;;;;;;;13.50;81.30;;;;;;5069549;28;19920;-82
2023/10/06 06:53:08;;;;;;;;;;;13.60;81.10;;;;;;5065998;28;20267;-83
2023/10/06 06:55:34;;;;;;;;;;;13.70;80.70;;;;;;5069217;28;19919;-81
2023/10/06 06:58:05;;;;;;;;;;;13.80;80.30;;;;;;5065667;28;19942;-81
2023/10/06 07:00:30;;;;;;;;;;;13.80;80.20;;;;;;5062429;28;20043;-80
2023/10/06 07:02:56;;;;;;;;;;;13.90;79.80;;;;;;5070424;28;19943;-82
2023/10/06 07:05:22;;;;;;;;;;;14.00;79.50;;;;;;5065542;28;19927;-80
2023/10/06 07:07:50;;;;;;;;;;;14.00;79.40;;;;;;5069863;28;20019;-80
2023/10/06 07:10:19;;;;;;;;;;;14.00;79.10;;;;;;5070272;28;19913;-81
2023/10/06 07:12:47;;;;;;;;;;;14.10;79.50;;;;;;5065950;28;19991;-81
2023/10/06 07:15:16;;;;;;;;;;;14.10;78.90;;;;;;5064313;28;19965;-83
2023/10/06 07:17:48;;;;;;;;;;;14.30;77.90;;;;;;5073751;28;19916;-83
2023/10/06 07:20:14;;;;;;;;;;;14.30;77.90;;;;;;5072980;28;19920;-82
2023/10/06 07:22:41;;;;;;;;;;;14.40;78.10;;;;;;5076624;28;19912;-83
2023/10/06 07:25:10;;;;;;;;;;;14.40;78.20;;;;;;5083163;28;19916;-82
2023/10/06 07:27:37;;;;;;;;;;;14.50;77.80;;;;;;5074513;28;19912;-83
2023/10/06 07:30:04;;;;;;;;;;;14.50;77.80;;;;;;5077287;28;19912;-82
2023/10/06 07:32:31;;;;;;;;;;;14.50;77.00;;;;;;5074913;28;19909;-83
2023/10/06 07:34:56;;;;;;;;;;;14.50;77.30;;;;;;5073004;28;19912;-83
2023/10/06 07:37:22;;;;;;;;;;;14.50;77.40;;;;;;5076138;28;19943;-83
2023/10/06 07:39:47;;;;;;;;;;;14.60;77.20;;;;;;5076385;28;19913;-83
2023/10/06 07:42:16;;;;;;;;;;;14.60;77.30;;;;;;5078985;28;19916;-84
2023/10/06 07:44:42;;;;;;;;;;;14.60;76.70;;;;;;5074815;28;20369;-83
2023/10/06 07:47:07;;;;;;;;;;;14.80;76.60;;;;;;5070305;28;19920;-83
2023/10/06 07:49:34;;;;;;;;;;;14.70;76.30;;;;;;5076111;28;19927;-83
2023/10/06 07:52:00;;;;;;;;;;;14.80;76.70;;;;;;5076033;28;19913;-84
2023/10/06 07:54:26;;;;;;;;;;;14.90;76.10;;;;;;5078527;28;19917;-79
2023/10/06 07:56:52;;;;;;;;;;;14.90;76.00;;;;;;5079922;28;20031;-84
2023/10/06 07:59:17;;;;;;;;;;;15.00;75.50;;;;;;5079006;28;19944;-86
2023/10/06 08:01:43;;;;;;;;;;;15.00;75.80;;;;;;5079611;28;19923;-87
2023/10/06 08:04:09;;;;;;;;;;;15.10;75.60;;;;;;5074620;28;19917;-88
2023/10/06 08:06:35;;;;;;;;;;;15.10;75.70;;;;;;5079047;28;19916;-86
2023/10/06 08:09:00;;;;;;;;;;;15.10;75.30;;;;;;5073306;28;19958;-86
2023/10/06 08:11:26;;;;;;;;;;;15.00;75.50;;;;;;5071473;28;19920;-77
2023/10/06 08:13:52;;;;;;;;;;;15.20;74.60;;;;;;5075193;28;19923;-78
2023/10/06 08:16:18;;;;;;;;;;;15.10;74.90;;;;;;5076371;28;19920;-86
2023/10/06 08:18:45;;;;;;;;;;;15.10;74.90;;;;;;5077715;28;19920;-85
2023/10/06 08:21:11;;;;;;;;;;;15.20;74.80;;;;;;5082232;28;20065;-85
2023/10/06 08:23:36;;;;;;;;;;;15.20;74.90;;;;;;5082867;28;19944;-85
2023/10/06 08:26:07;;;;;;;;;;;15.30;74.70;;;;;;5083557;28;19976;-85
2023/10/06 08:28:33;;;;;;;;;;;15.30;74.70;;;;;;5082158;28;19999;-85
2023/10/06 08:31:00;;;;;;;;;;;15.40;74.00;;;;;;5075227;28;20376;-78
2023/10/06 08:33:27;;;;;;;;;;;15.40;73.80;;;;;;5072331;28;19916;-78
2023/10/06 08:36:00;;;;;;;;;;;15.40;73.90;;;;;;5075867;28;19967;-78
2023/10/06 08:38:26;;;;;;;;;;;15.50;73.80;;;;;;5075011;28;19913;-77
2023/10/06 08:40:58;;;;;;;;;;;15.60;73.20;;;;;;5076959;28;19912;-78
2023/10/06 08:43:27;;;;;;;;;;;15.60;73.70;;;;;;5076974;28;19953;-78
2023/10/06 08:45:55;;;;;;;;;;;15.60;73.20;;;;;;5076463;28;19932;-78
2023/10/06 08:48:24;;;;;;;;;;;15.70;73.10;;;;;;5075205;28;19958;-79
2023/10/06 08:50:53;;;;;;;;;;;15.70;73.60;;;;;;5074010;28;20477;-77
2023/10/06 08:53:20;;;;;;;;;;;15.70;73.40;;;;;;5077375;28;20033;-80
2023/10/06 08:55:45;;;;;;;;;;;15.70;73.20;;;;;;5077051;28;19916;-78
2023/10/06 08:58:14;;;;;;;;;;;15.80;73.70;;;;;;5076886;28;20301;-81
2023/10/06 09:00:43;;;;;;;;;;;16.00;73.00;;;;;;5077618;28;19940;-80
2023/10/06 09:03:11;;;;;;;;;;;16.00;72.40;;;;;;5075769;28;19916;-80
2023/10/06 09:05:40;;;;;;;;;;;16.10;72.20;;;;;;5068816;28;19913;-87
2023/10/06 09:08:07;;;;;;;;;;;16.00;72.00;;;;;;5073408;28;20025;-85
2023/10/06 09:10:33;;;;;;;;;;;16.10;72.10;;;;;;5073294;28;21198;-85
2023/10/06 09:13:04;;;;;;;;;;;16.20;72.00;;;;;;5073439;28;19943;-84
2023/10/06 09:15:30;;;;;;;;;;;16.20;72.20;;;;;;5069315;28;19924;-85
2023/10/06 09:17:56;;;;;;;;;;;16.30;71.80;;;;;;5070788;28;19974;-83
2023/10/06 09:20:32;;;;;;;;;;;16.30;71.80;;;;;;5062861;28;19912;-86
2023/10/06 09:22:58;;;;;;;;;;;16.40;71.30;;;;;;5078367;28;19913;-85
2023/10/06 09:25:24;;;;;;;;;;;16.50;70.90;;;;;;5080975;28;20028;-86
2023/10/06 09:28:08;;;;;;;;;;;16.50;71.70;;;;;;5093467;28;19912;-89
2023/10/06 09:31:08;;;;;;;;;;;16.50;72.00;;;;;;5089129;28;19916;-83
2023/10/06 09:33:36;;;;;;;;;;;16.50;71.20;;;;;;5052952;28;19912;-86
2023/10/06 09:36:10;;;;;;;;;;;16.60;70.80;;;;;;5087164;28;19924;-88
2023/10/06 09:38:39;;;;;;;;;;;16.70;70.50;;;;;;5089287;28;19919;-87
2023/10/06 09:41:07;;;;;;;;;;;16.90;70.40;;;;;;5071305;28;20003;-86
2023/10/06 09:43:34;;;;;;;;;;;16.90;69.50;;;;;;5073695;28;19916;-84
2023/10/06 09:46:07;;;;;;;;;;;16.90;69.60;;;;;;5073371;28;19913;-86
2023/10/06 09:48:35;;;;;;;;;;;16.80;70.20;;;;;;5068946;28;20337;-85
2023/10/06 09:51:05;;;;;;;;;;;16.90;70.00;;;;;;5072013;28;19924;-86
2023/10/06 09:53:32;;;;;;;;;;;17.00;69.90;;;;;;5084478;28;19978;-86
2023/10/06 09:55:57;;;;;;;;;;;17.00;69.70;;;;;;5070596;28;19912;-87
2023/10/06 09:58:23;;;;;;;;;;;17.00;69.30;;;;;;5072093;28;19999;-87
2023/10/06 10:00:49;;;;;;;;;;;17.10;69.20;;;;;;5078413;28;20003;-88
2023/10/06 10:03:15;;;;;;;;;;;17.00;68.90;;;;;;5080690;28;19973;-86
2023/10/06 10:05:41;;;;;;;;;;;17.00;69.00;;;;;;5075228;28;19916;-87
2023/10/06 10:08:07;;;;;;;;;;;17.10;69.70;;;;;;5070252;28;20066;-86
2023/10/06 10:10:34;;;;;;;;;;;17.30;69.60;;;;;;5075996;28;20442;-87
2023/10/06 10:13:19;;;;;;;;;;;17.30;68.80;;;;;;5075595;28;20007;-86
2023/10/06 10:15:45;;;;;;;;;;;17.50;68.00;;;;;;5077752;28;20417;-87
2023/10/06 10:18:18;;;;;;;;;;;17.50;67.60;;;;;;5076874;28;19943;-88
2023/10/06 10:20:46;;;;;;;;;;;17.60;68.00;;;;;;5079968;28;19919;-87
2023/10/06 10:23:15;;;;;;;;;;;17.80;66.60;;;;;;5078463;28;19912;-86
2023/10/06 10:25:40;;;;;;;;;;;17.60;67.10;;;;;;5080610;28;19920;-85
2023/10/06 10:28:10;;;;;;;;;;;17.50;67.30;;;;;;5073507;28;19912;-86
2023/10/06 10:30:50;;;;;;;;;;;17.50;67.90;;;;;;5079059;28;19920;-87
2023/10/06 10:33:22;;;;;;;;;;;17.50;68.60;;;;;;5073423;28;20297;-85
2023/10/06 10:36:06;;;;;;;;;;;17.50;68.40;;;;;;5079387;28;19919;-87
2023/10/06 10:38:32;;;;;;;;;;;17.60;67.00;;;;;;5080195;28;20267;-85
2023/10/06 10:40:58;;;;;;;;;;;17.50;67.50;;;;;;5080985;28;20300;-87
2023/10/06 10:43:23;;;;;;;;;;;17.40;68.20;;;;;;5072309;28;19920;-86
2023/10/06 10:45:52;;;;;;;;;;;17.40;68.20;;;;;;5070999;28;19916;-85
2023/10/06 10:48:18;;;;;;;;;;;17.40;68.30;;;;;;5072663;28;19916;-86
2023/10/06 10:50:53;;;;;;;;;;;17.40;68.20;;;;;;5072876;28;19939;-86
2023/10/06 10:53:20;;;;;;;;;;;17.30;68.30;;;;;;5070219;28;20270;-86
2023/10/06 10:55:46;;;;;;;;;;;17.20;69.20;;;;;;5073259;28;20510;-86
2023/10/06 10:58:32;;;;;;;;;;;17.10;69.30;;;;;;5072943;28;19935;-87
2023/10/06 11:01:17;;;;;;;;;;;17.20;69.90;;;;;;5070603;28;20796;-86
2023/10/06 11:03:43;;;;;;;;;;;17.30;69.70;;;;;;5077672;28;20062;-86
2023/10/06 11:06:09;;;;;;;;;;;17.40;69.70;;;;;;5073366;28;19947;-86
2023/10/06 11:08:38;;;;;;;;;;;17.50;69.90;;;;;;5073739;28;19913;-89
2023/10/06 11:11:04;;;;;;;;;;;17.50;69.90;;;;;;5073704;28;19912;-86
2023/10/06 11:13:31;;;;;;;;;;;17.50;70.10;;;;;;5072852;28;19923;-86
2023/10/06 11:16:03;;;;;;;;;;;17.70;69.60;;;;;;5075943;28;20281;-86
2023/10/06 11:18:34;;;;;;;;;;;17.80;69.50;;;;;;5075297;28;19909;-86
2023/10/06 11:21:00;;;;;;;;;;;17.80;69.30;;;;;;5073883;28;19912;-86
2023/10/06 11:23:40;;;;;;;;;;;17.80;69.40;;;;;;5073436;28;19919;-86
2023/10/06 11:26:06;;;;;;;;;;;17.80;69.30;;;;;;5073581;28;19939;-87
2023/10/06 11:28:41;;;;;;;;;;;17.90;69.30;;;;;;5071250;28;20411;-86
2023/10/06 11:31:11;;;;;;;;;;;18.00;69.40;;;;;;5075096;28;19920;-86
2023/10/06 11:33:37;;;;;;;;;;;18.10;67.70;;;;;;5080902;28;20011;-87
2023/10/06 11:36:04;;;;;;;;;;;18.20;67.90;;;;;;5090011;28;19908;-85
2023/10/06 11:38:29;;;;;;;;;;;18.20;67.00;;;;;;5084899;28;19920;-86
2023/10/06 11:40:56;;;;;;;;;;;18.30;66.60;;;;;;5070478;28;20382;-84
2023/10/06 11:43:21;;;;;;;;;;;18.30;65.10;;;;;;5070769;28;20353;-85
2023/10/06 11:45:47;;;;;;;;;;;18.40;64.20;;;;;;5072623;28;19962;-88
2023/10/06 11:48:28;;;;;;;;;;;18.40;64.10;;;;;;5071565;28;20400;-87
2023/10/06 11:51:06;;;;;;;;;;;18.40;63.70;;;;;;5071452;28;19924;-85
2023/10/06 11:53:36;;;;;;;;;;;18.40;64.10;;;;;;5070996;28;19928;-86
2023/10/06 11:56:10;;;;;;;;;;;18.40;64.70;;;;;;5073797;28;19912;-87
2023/10/06 11:58:36;;;;;;;;;;;18.50;64.90;;;;;;5069378;28;19916;-88
2023/10/06 12:01:02;;;;;;;;;;;18.50;65.10;;;;;;5073003;28;20006;-86
2023/10/06 12:03:39;;;;;;;;;;;18.60;65.10;;;;;;5074580;28;20341;-89
2023/10/06 12:06:07;;;;;;;;;;;18.60;64.90;;;;;;5072397;28;20405;-86
2023/10/06 12:08:33;;;;;;;;;;;18.70;63.70;;;;;;5073564;28;19945;-85
2023/10/06 12:11:03;;;;;;;;;;;18.70;62.00;;;;;;5074517;28;19912;-86
2023/10/06 12:13:29;;;;;;;;;;;18.80;61.80;;;;;;5073544;28;19932;-86
2023/10/06 12:15:54;;;;;;;;;;;18.90;62.10;;;;;;5073673;28;20278;-85
2023/10/06 12:18:24;;;;;;;;;;;19.00;62.00;;;;;;5073027;28;19966;-86
2023/10/06 12:20:50;;;;;;;;;;;19.10;60.60;;;;;;5074677;28;19909;-86
2023/10/06 12:23:15;;;;;;;;;;;19.10;61.30;;;;;;5075934;28;19981;-91
2023/10/06 12:25:41;;;;;;;;;;;19.10;61.30;;;;;;5077412;28;19913;-85
2023/10/06 12:28:06;;;;;;;;;;;19.10;61.40;;;;;;5077371;28;19912;-87
2023/10/06 12:30:32;;;;;;;;;;;19.10;60.90;;;;;;5072264;28;19952;-88
2023/10/06 12:32:58;;;;;;;;;;;19.00;61.80;;;;;;5077433;28;19912;-89
2023/10/06 12:35:28;;;;;;;;;;;19.10;62.20;;;;;;5078787;28;19915;-86
2023/10/06 12:37:54;;;;;;;;;;;19.10;62.00;;;;;;5077375;28;20000;-87
2023/10/06 12:40:19;;;;;;;;;;;19.10;61.60;;;;;;5082759;28;20297;-86
2023/10/06 12:42:45;;;;;;;;;;;19.10;62.00;;;;;;5085451;28;20365;-89
2023/10/06 12:45:17;;;;;;;;;;;19.20;62.30;;;;;;5084918;28;19916;-86
2023/10/06 12:47:45;;;;;;;;;;;19.20;62.40;;;;;;5082880;28;19913;-86
2023/10/06 12:50:17;;;;;;;;;;;19.30;62.10;;;;;;5078971;28;19920;-86
2023/10/06 12:52:51;;;;;;;;;;;19.30;61.30;;;;;;5078825;28;19940;-86
2023/10/06 12:55:21;;;;;;;;;;;19.30;61.20;;;;;;5078315;28;19917;-87
2023/10/06 12:57:47;;;;;;;;;;;19.30;61.20;;;;;;5078149;28;19912;-86
2023/10/06 13:00:12;;;;;;;;;;;19.30;61.20;;;;;;5081053;28;19912;-85
2023/10/06 13:02:38;;;;;;;;;;;19.40;61.10;;;;;;5076444;28;19909;-86
2023/10/06 13:05:08;;;;;;;;;;;19.60;60.20;;;;;;5072084;28;19920;-85
2023/10/06 13:07:37;;;;;;;;;;;19.60;59.60;;;;;;5077255;28;20246;-84
2023/10/06 13:10:06;;;;;;;;;;;19.60;59.80;;;;;;5073139;28;19923;-85
2023/10/06 13:12:42;;;;;;;;;;;19.40;60.50;;;;;;5075207;28;20009;-84
2023/10/06 13:15:14;;;;;;;;;;;19.30;60.60;;;;;;5077158;28;19920;-84
2023/10/06 13:17:41;;;;;;;;;;;19.30;61.30;;;;;;5076650;28;21276;-84
2023/10/06 13:20:08;;;;;;;;;;;19.40;61.20;;;;;;5074500;28;20300;-84
2023/10/06 13:22:37;;;;;;;;;;;19.40;61.60;;;;;;5086612;28;20133;-87
2023/10/06 13:25:04;;;;;;;;;;;19.50;62.00;;;;;;5075971;28;19912;-83
2023/10/06 13:27:29;;;;;;;;;;;19.60;61.80;;;;;;5069501;28;20395;-84
2023/10/06 13:29:55;;;;;;;;;;;19.60;61.50;;;;;;5078803;28;19944;-85
2023/10/06 13:32:21;;;;;;;;;;;19.70;60.90;;;;;;5078944;28;19999;-88
2023/10/06 13:34:47;;;;;;;;;;;20.00;60.00;;;;;;5078341;28;20031;-86
2023/10/06 13:37:14;;;;;;;;;;;20.10;59.80;;;;;;5078006;28;20324;-85
2023/10/06 13:39:40;;;;;;;;;;;20.10;58.70;;;;;;5077661;28;19912;-85
2023/10/06 13:42:05;;;;;;;;;;;20.20;58.30;;;;;;5076495;28;19924;-86
2023/10/06 13:44:31;;;;;;;;;;;20.10;58.30;;;;;;5076414;28;20331;-84
2023/10/06 13:46:57;;;;;;;;;;;20.30;59.30;;;;;;5075481;28;19913;-83
2023/10/06 13:49:24;;;;;;;;;;;20.40;58.90;;;;;;5076606;28;19916;-85
2023/10/06 13:51:50;;;;;;;;;;;20.40;58.30;;;;;;5069504;28;20422;-84
2023/10/06 13:54:18;;;;;;;;;;;20.40;58.80;;;;;;5074742;28;19909;-85
2023/10/06 13:56:43;;;;;;;;;;;20.40;58.50;;;;;;5074769;28;19966;-84
2023/10/06 13:59:09;;;;;;;;;;;20.30;58.50;;;;;;5076862;28;19923;-85
2023/10/06 14:01:35;;;;;;;;;;;20.20;58.80;;;;;;5079681;28;19915;-84
2023/10/06 14:04:03;;;;;;;;;;;20.10;58.80;;;;;;5076882;28;19909;-85
2023/10/06 14:06:28;;;;;;;;;;;20.10;59.20;;;;;;5075681;28;19909;-84
2023/10/06 14:08:54;;;;;;;;;;;20.00;60.00;;;;;;5076148;28;19913;-85
2023/10/06 14:11:19;;;;;;;;;;;19.90;59.90;;;;;;5075025;28;19912;-83
2023/10/06 14:13:48;;;;;;;;;;;19.90;60.40;;;;;;5076865;28;19916;-85
2023/10/06 14:16:21;;;;;;;;;;;19.90;61.30;;;;;;5069971;28;19958;-86
2023/10/06 14:18:47;;;;;;;;;;;20.00;61.10;;;;;;5075875;28;19912;-85
2023/10/06 14:21:13;;;;;;;;;;;19.90;61.40;;;;;;5074603;28;20018;-84
2023/10/06 14:23:47;;;;;;;;;;;20.10;61.30;;;;;;5078340;28;19951;-83
2023/10/06 14:26:12;;;;;;;;;;;20.00;61.10;;;;;;5072434;28;20015;-84
2023/10/06 14:28:39;;;;;;;;;;;19.90;61.90;;;;;;5072021;28;19944;-86
2023/10/06 14:33:57;;;;;;;;;;;19.80;61.90;;;;;;5071729;28;19923;-87
2023/10/06 14:36:25;;;;;;;;;;;19.80;62.30;;;;;;5069734;28;20405;-86